Time;durP1;ratioP1;P1;durP2;ratioP2;P2;SDS_P1;SDS_P2;PMS_P1;PMS_P2;Temp;Humidity;BMP_temperature;BMP_pressure;BME280_temperature;BME280_humidity;BME280_pressure;Samples;Min_cycle;Max_cycle;Signal;HPM_P1;HPM_P2
2021/07/05 00:03:11;;;;;;;2.85;0.82;;;26.00;42.80;;;;;;20536258;28;81171;-71
2021/07/05 00:13:12;;;;;;;2.33;1.27;;;25.90;43.00;;;;;;20534254;28;80866;-71
2021/07/05 00:23:14;;;;;;;5.32;0.85;;;25.80;43.70;;;;;;20542996;28;81510;-71
2021/07/05 00:33:16;;;;;;;2.15;0.85;;;25.70;43.80;;;;;;20537193;28;81364;-71
2021/07/05 00:43:17;;;;;;;2.05;1.00;;;25.50;44.70;;;;;;20530854;28;81539;-71
2021/07/05 00:53:19;;;;;;;2.17;1.13;;;25.30;45.30;;;;;;20529462;28;80963;-70
2021/07/05 01:03:21;;;;;;;2.58;1.00;;;25.20;46.00;;;;;;20556827;28;80712;-71
2021/07/05 01:13:25;;;;;;;2.92;1.00;;;25.00;46.50;;;;;;20531224;28;80801;-71
2021/07/05 01:23:27;;;;;;;2.33;0.93;;;24.90;47.00;;;;;;20531727;28;81503;-71
2021/07/05 01:33:30;;;;;;;2.45;1.08;;;24.70;47.50;;;;;;20530779;28;81877;-71
2021/07/05 01:43:35;;;;;;;2.20;0.88;;;24.60;47.80;;;;;;20527401;28;81162;-71
2021/07/05 01:53:48;;;;;;;4.90;0.93;;;24.50;48.00;;;;;;20534184;28;80543;-71
2021/07/05 02:03:51;;;;;;;2.60;1.20;;;24.50;48.40;;;;;;20531207;28;80648;-71
2021/07/05 02:13:56;;;;;;;2.40;1.00;;;24.40;48.80;;;;;;20529139;28;80725;-71
2021/07/05 02:23:58;;;;;;;3.83;1.45;;;24.20;49.30;;;;;;20527491;28;80475;-72
2021/07/05 02:34:04;;;;;;;2.28;1.00;;;24.10;49.60;;;;;;20543832;28;80312;-71
2021/07/05 02:44:06;;;;;;;2.85;1.33;;;24.00;50.00;;;;;;20532740;28;80193;-72
2021/07/05 02:54:10;;;;;;;3.53;1.20;;;23.90;50.10;;;;;;20546568;28;80686;-71
2021/07/05 03:04:15;;;;;;;2.10;1.10;;;23.80;50.80;;;;;;20547783;28;80656;-72
2021/07/05 03:14:38;;;;;;;3.13;1.10;;;23.60;51.40;;;;;;20541321;28;80520;-72
2021/07/05 03:24:51;;;;;;;2.83;1.83;;;23.50;51.80;;;;;;20540133;28;80420;-71
2021/07/05 03:34:58;;;;;;;2.65;1.15;;;23.40;52.30;;;;;;20537327;28;80655;-72
2021/07/05 03:45:08;;;;;;;4.97;1.70;;;23.30;52.70;;;;;;20526196;28;81488;-72
2021/07/05 03:55:14;;;;;;;2.50;1.20;;;23.20;53.30;;;;;;20541695;28;80928;-69
2021/07/05 04:05:21;;;;;;;3.05;1.67;;;23.10;53.30;;;;;;20519852;28;81046;-75
2021/07/05 04:15:26;;;;;;;2.70;1.60;;;23.00;53.70;;;;;;20542451;28;81850;-74
2021/07/05 04:25:31;;;;;;;4.47;1.80;;;23.00;54.40;;;;;;20536612;28;80885;-73
2021/07/05 04:35:37;;;;;;;5.18;1.90;;;22.90;54.20;;;;;;20523360;28;81599;-71
2021/07/05 04:45:44;;;;;;;32.85;20.23;;;22.90;54.00;;;;;;20542284;28;80820;-73
2021/07/05 04:55:47;;;;;;;47.65;29.98;;;22.90;53.90;;;;;;20500624;28;83229;-72
2021/07/05 05:05:49;;;;;;;6.22;2.47;;;22.80;54.00;;;;;;20520587;28;83280;-71
2021/07/05 05:15:50;;;;;;;;;;;22.70;54.00;;;;;;20535576;28;82164;-72
2021/07/05 05:25:53;;;;;;;5.03;1.48;;;22.70;53.90;;;;;;20540958;28;80687;-72
2021/07/05 05:35:55;;;;;;;4.30;1.63;;;22.80;53.40;;;;;;20522918;28;80251;-71
2021/07/05 05:46:01;;;;;;;5.63;1.52;;;22.80;53.20;;;;;;20519604;28;81311;-70
2021/07/05 05:56:04;;;;;;;4.53;1.88;;;22.80;53.20;;;;;;20533583;28;81120;-72
2021/07/05 06:06:05;;;;;;;3.05;1.70;;;22.90;53.40;;;;;;20532040;28;80545;-70
2021/07/05 06:16:07;;;;;;;4.57;1.80;;;22.90;53.50;;;;;;20530660;28;82563;-70
2021/07/05 06:26:09;;;;;;;3.20;1.50;;;22.90;53.90;;;;;;20547584;28;80239;-70
2021/07/05 06:36:14;;;;;;;47.75;29.67;;;23.00;53.50;;;;;;20529694;28;80887;-70
2021/07/05 06:46:16;;;;;;;5.13;2.60;;;23.00;53.40;;;;;;20513214;28;83644;-70
2021/07/05 06:56:19;;;;;;;18.95;12.05;;;23.30;52.80;;;;;;20523078;28;82037;-70
2021/07/05 07:06:20;;;;;;;7.47;4.20;;;23.40;52.10;;;;;;20519295;28;84263;-70
2021/07/05 07:16:26;;;;;;;19.13;13.32;;;23.60;52.30;;;;;;20541297;28;83262;-70
2021/07/05 07:26:28;;;;;;;6.75;1.95;;;23.80;51.60;;;;;;20512576;28;83918;-72
2021/07/05 07:36:31;;;;;;;11.77;3.75;;;24.20;51.20;;;;;;20518633;28;83291;-69
2021/07/05 07:46:33;;;;;;;3.70;1.65;;;24.40;51.30;;;;;;20517858;28;80621;-69
2021/07/05 07:56:38;;;;;;;5.38;2.15;;;24.60;50.70;;;;;;20513868;28;80223;-69
2021/07/05 08:06:41;;;;;;;9.38;2.35;;;24.90;50.40;;;;;;20524344;28;80552;-69
2021/07/05 08:16:43;;;;;;;15.95;5.45;;;25.10;49.70;;;;;;20504540;28;80789;-70
2021/07/05 08:26:46;;;;;;;7.40;2.15;;;25.30;48.80;;;;;;20518180;28;80688;-70
2021/07/05 08:47:49;;;;;;;3.33;1.98;;;25.80;47.60;;;;;;20529753;28;81086;-71
2021/07/05 08:57:52;;;;;;;2.45;1.50;;;25.90;47.00;;;;;;20523444;28;81047;-71
2021/07/05 09:08:01;;;;;;;2.45;1.60;;;26.20;46.20;;;;;;20519777;28;80130;-71
2021/07/05 09:18:29;;;;;;;2.70;1.60;;;26.40;45.60;;;;;;20531272;28;80151;-71
2021/07/05 09:28:38;;;;;;;6.80;2.05;;;26.70;45.10;;;;;;20515573;28;81205;-71
2021/07/05 09:38:42;;;;;;;3.00;2.05;;;27.00;44.20;;;;;;20511935;28;80396;-70
2021/07/05 09:48:47;;;;;;;5.15;2.22;;;27.40;43.30;;;;;;20553974;28;81258;-70
2021/07/05 09:59:18;;;;;;;9.48;2.20;;;28.00;42.20;;;;;;20540309;28;81725;-71
2021/07/05 10:09:37;;;;;;;4.88;2.30;;;28.60;41.00;;;;;;20518832;28;80663;-71
2021/07/05 10:19:40;;;;;;;4.32;1.90;;;28.90;40.40;;;;;;20541690;28;81074;-70
2021/07/05 10:29:46;;;;;;;2.33;1.70;;;29.40;39.60;;;;;;20541948;28;81838;-70
2021/07/05 10:39:50;;;;;;;4.40;1.98;;;29.60;38.90;;;;;;20539050;28;80466;-70
2021/07/05 10:49:53;;;;;;;4.18;2.83;;;30.10;38.10;;;;;;20542154;28;81136;-71
2021/07/05 11:00:03;;;;;;;8.23;1.95;;;30.90;36.30;;;;;;20519144;28;81608;-70
2021/07/05 11:10:17;;;;;;;6.30;2.33;;;34.70;30.40;;;;;;20542511;28;80722;-69
2021/07/05 11:20:19;;;;;;;4.85;1.80;;;36.80;27.90;;;;;;20525776;28;80276;-71
2021/07/05 11:30:39;;;;;;;4.55;1.73;;;35.90;29.00;;;;;;20531487;28;80716;-68
2021/07/05 11:40:43;;;;;;;4.40;2.00;;;35.50;28.60;;;;;;20516206;28;80778;-68
2021/07/05 11:50:45;;;;;;;5.80;2.03;;;36.50;27.60;;;;;;20526287;28;80660;-68
2021/07/05 12:00:47;;;;;;;3.33;1.98;;;40.00;24.00;;;;;;20509103;28;80697;-67
2021/07/05 12:10:56;;;;;;;8.38;4.18;;;42.00;22.10;;;;;;20544500;28;80517;-68
2021/07/05 12:21:04;;;;;;;8.33;3.77;;;41.90;21.30;;;;;;20525133;28;80107;-67
2021/07/05 12:31:06;;;;;;;;;;;43.50;20.40;;;;;;20522794;28;80761;-67
2021/07/05 12:41:08;;;;;;;5.95;2.75;;;45.00;19.40;;;;;;20560251;28;81825;-71
2021/07/05 12:51:13;;;;;;;5.25;3.05;;;45.20;18.90;;;;;;20524357;28;80259;-70
2021/07/05 13:01:18;;;;;;;5.82;2.55;;;46.10;18.30;;;;;;20531990;28;81183;-70
2021/07/05 13:11:20;;;;;;;3.10;2.10;;;45.60;18.50;;;;;;20531525;28;81812;-68
2021/07/05 13:21:29;;;;;;;4.18;2.95;;;46.90;17.60;;;;;;20518845;28;81863;-71
2021/07/05 13:31:37;;;;;;;3.05;2.58;;;46.50;17.70;;;;;;20525568;28;80708;-69
2021/07/05 13:41:41;;;;;;;5.35;2.83;;;45.50;17.70;;;;;;20524686;28;80983;-70
2021/07/05 13:51:43;;;;;;;5.32;2.55;;;40.50;20.50;;;;;;20510039;28;80887;-70
2021/07/05 14:01:45;;;;;;;4.18;2.03;;;37.40;23.20;;;;;;20527772;28;80310;-71
2021/07/05 14:11:49;;;;;;;4.07;1.95;;;36.50;23.20;;;;;;20514135;28;80639;-71
2021/07/05 14:21:53;;;;;;;4.07;1.55;;;35.40;24.70;;;;;;20519872;28;81579;-71
2021/07/05 14:31:56;;;;;;;2.20;1.60;;;35.00;24.90;;;;;;20545217;28;80621;-71
2021/07/05 14:41:58;;;;;;;3.55;2.75;;;34.40;24.90;;;;;;20534236;28;81688;-71
2021/07/05 14:52:00;;;;;;;6.72;3.75;;;34.30;25.50;;;;;;20532589;28;80774;-70
2021/07/05 15:02:02;;;;;;;2.42;1.70;;;34.20;25.50;;;;;;20513433;28;80875;-70
2021/07/05 15:12:04;;;;;;;6.28;1.63;;;33.70;25.60;;;;;;20546485;28;81426;-69
2021/07/05 15:22:06;;;;;;;2.33;1.40;;;33.50;26.20;;;;;;20516299;28;80774;-71
2021/07/05 15:32:08;;;;;;;4.60;1.00;;;33.50;26.40;;;;;;20538348;28;80590;-69
2021/07/05 15:42:10;;;;;;;3.38;1.00;;;33.40;26.30;;;;;;20535529;28;80836;-72
2021/07/05 15:52:12;;;;;;;3.63;1.17;;;33.00;26.10;;;;;;20531004;28;81169;-70
2021/07/05 16:02:13;;;;;;;12.65;8.50;;;32.90;27.00;;;;;;20516110;28;80732;-70
2021/07/05 16:12:15;;;;;;;6.50;3.50;;;32.90;26.90;;;;;;20524308;28;81272;-69
2021/07/05 16:22:17;;;;;;;5.75;2.00;;;32.90;26.80;;;;;;20516973;28;80773;-68
2021/07/05 16:32:18;;;;;;;3.47;1.50;;;32.50;26.50;;;;;;20524736;28;80629;-69
2021/07/05 16:42:20;;;;;;;11.85;1.33;;;32.50;27.40;;;;;;21559405;23;82295;-70
2021/07/05 17:02:30;;;;;;;4.05;1.20;;;32.20;27.70;;;;;;20439967;28;81526;-70
2021/07/05 17:12:32;;;;;;;4.43;1.85;;;31.90;28.20;;;;;;20449734;28;80681;-70
2021/07/05 17:32:55;;;;;;;17.83;2.30;;;31.70;28.60;;;;;;21198999;22;82229;-70
2021/07/05 17:42:57;;;;;;;6.78;3.78;;;31.60;29.40;;;;;;20197712;28;80694;-70
2021/07/05 17:52:59;;;;;;;4.97;3.75;;;31.40;29.70;;;;;;20225964;28;80704;-71
2021/07/05 18:03:01;;;;;;;9.27;3.15;;;31.20;30.40;;;;;;20216474;28;80151;-71
2021/07/05 18:13:05;;;;;;;5.75;3.00;;;31.00;31.10;;;;;;20236829;28;80679;-70
2021/07/05 18:23:07;;;;;;;2.00;1.52;;;31.00;31.70;;;;;;20220590;28;80718;-70
2021/07/05 18:33:09;;;;;;;6.68;2.60;;;30.90;31.80;;;;;;20256267;28;80386;-70
2021/07/05 18:43:11;;;;;;;3.05;1.80;;;30.80;32.00;;;;;;20223379;28;81132;-71
2021/07/05 18:53:13;;;;;;;5.20;3.40;;;30.60;32.70;;;;;;20213554;28;81351;-72
2021/07/05 19:03:15;;;;;;;4.00;2.28;;;30.40;32.50;;;;;;20234250;28;80718;-72
2021/07/05 19:13:17;;;;;;;3.45;1.52;;;30.20;32.80;;;;;;20248429;28;80485;-70
2021/07/05 19:23:18;;;;;;;7.03;4.90;;;30.10;32.00;;;;;;20260652;28;80663;-69
2021/07/05 19:33:20;;;;;;;4.13;2.40;;;29.90;31.90;;;;;;20250027;28;81257;-69
2021/07/05 19:43:21;;;;;;;3.13;1.38;;;29.80;30.70;;;;;;20222931;28;80464;-67
2021/07/05 19:53:23;;;;;;;8.55;5.45;;;29.70;30.40;;;;;;20232873;28;81478;-69
2021/07/05 20:03:25;;;;;;;16.52;9.57;;;29.50;31.00;;;;;;20243976;28;80488;-68
2021/07/05 20:13:26;;;;;;;28.10;18.73;;;29.50;33.10;;;;;;20210446;28;80510;-67
2021/07/05 20:23:28;;;;;;;25.45;11.70;;;29.30;32.10;;;;;;20240988;28;84178;-70
2021/07/05 20:33:30;;;;;;;9.55;3.60;;;29.20;32.60;;;;;;20207172;28;83344;-68
2021/07/05 20:43:32;;;;;;;15.65;6.40;;;29.10;32.10;;;;;;20248408;28;81611;-71
2021/07/05 20:53:35;;;;;;;4.53;2.58;;;29.00;32.90;;;;;;20226464;28;80553;-66
2021/07/05 21:03:37;;;;;;;4.38;1.50;;;28.80;33.10;;;;;;20200908;28;80710;-69
2021/07/05 21:13:38;;;;;;;4.43;1.45;;;28.70;33.60;;;;;;20218271;28;81372;-69
2021/07/05 21:23:40;;;;;;;3.13;1.10;;;28.60;34.40;;;;;;20237953;28;80686;-68
2021/07/05 21:33:41;;;;;;;3.72;1.25;;;28.50;34.90;;;;;;20215632;28;80196;-68
2021/07/05 21:43:43;;;;;;;4.18;1.42;;;28.40;35.00;;;;;;20266076;28;81348;-71
2021/07/05 21:53:45;;;;;;;4.32;2.20;;;28.30;35.70;;;;;;20228490;28;82822;-72
2021/07/05 22:03:47;;;;;;;4.82;1.73;;;28.10;35.10;;;;;;20262964;28;81572;-70
2021/07/05 22:13:49;;;;;;;1.23;0.63;;;28.00;35.00;;;;;;20254826;28;81542;-70
2021/07/05 22:23:50;;;;;;;4.25;0.60;;;27.90;33.60;;;;;;20279082;28;82173;-71
2021/07/05 22:33:52;;;;;;;1.60;0.70;;;27.80;33.20;;;;;;20298829;28;81748;-68
2021/07/05 22:43:54;;;;;;;0.88;0.40;;;27.70;33.70;;;;;;20255160;28;81260;-69
2021/07/05 22:53:57;;;;;;;2.28;0.80;;;27.50;33.80;;;;;;20273612;28;80674;-69
2021/07/05 23:03:58;;;;;;;4.35;0.77;;;27.40;34.20;;;;;;20235934;28;81079;-70
2021/07/05 23:14:00;;;;;;;1.55;0.70;;;27.30;34.90;;;;;;20266822;28;81005;-70
2021/07/05 23:24:02;;;;;;;5.28;1.30;;;27.10;36.10;;;;;;20267783;28;80483;-68
2021/07/05 23:34:03;;;;;;;1.00;0.50;;;26.70;37.00;;;;;;20258370;28;81013;-69
2021/07/05 23:44:07;;;;;;;2.22;0.63;;;26.50;37.70;;;;;;20259119;28;80665;-68
2021/07/05 23:54:09;;;;;;;1.83;0.60;;;26.50;37.80;;;;;;20233708;28;80101;-68
